sensor_id;sensor_type;location;lat;lon;timestamp;pressure;altitude;pressure_sealevel;temperature;humidity
72066;BME280;59939;52.516;13.420;2022-10-16T00:02:12;100157.28;;;19.59;62.10
72066;BME280;59939;52.516;13.420;2022-10-16T00:05:18;100147.94;;;19.77;61.60
72066;BME280;59939;52.516;13.420;2022-10-16T00:08:22;100147.94;;;19.40;63.04
72066;BME280;59939;52.516;13.420;2022-10-16T00:11:35;100154.97;;;19.64;62.05
72066;BME280;59939;52.516;13.420;2022-10-16T00:14:48;100151.38;;;19.64;62.49
72066;BME280;59939;52.516;13.420;2022-10-16T00:18:18;100155.81;;;19.68;62.30
72066;BME280;59939;52.516;13.420;2022-10-16T00:21:27;100169.75;;;19.72;62.33
72066;BME280;59939;52.516;13.420;2022-10-16T00:24:38;100154.50;;;19.59;62.74
72066;BME280;59939;52.516;13.420;2022-10-16T00:27:44;100162.09;;;20.02;61.37
72066;BME280;59939;52.516;13.420;2022-10-16T00:30:51;100167.63;;;19.58;63.03
72066;BME280;59939;52.516;13.420;2022-10-16T00:33:55;100175.75;;;19.74;62.40
72066;BME280;59939;52.516;13.420;2022-10-16T00:36:59;100189.94;;;19.62;62.73
72066;BME280;59939;52.516;13.420;2022-10-16T00:40:03;100175.16;;;19.95;61.56
72066;BME280;59939;52.516;13.420;2022-10-16T00:43:39;100178.25;;;19.86;61.91
72066;BME280;59939;52.516;13.420;2022-10-16T00:46:43;100173.81;;;19.81;62.14
72066;BME280;59939;52.516;13.420;2022-10-16T00:49:50;100168.94;;;20.63;59.17
72066;BME280;59939;52.516;13.420;2022-10-16T00:52:54;100174.47;;;20.08;60.87
72066;BME280;59939;52.516;13.420;2022-10-16T00:55:59;100180.50;;;19.73;62.61
72066;BME280;59939;52.516;13.420;2022-10-16T00:59:06;100178.66;;;19.88;62.22
72066;BME280;59939;52.516;13.420;2022-10-16T01:02:14;100198.41;;;20.16;60.97
72066;BME280;59939;52.516;13.420;2022-10-16T01:05:20;100183.50;;;20.39;60.11
72066;BME280;59939;52.516;13.420;2022-10-16T01:08:35;100189.34;;;20.27;60.47
72066;BME280;59939;52.516;13.420;2022-10-16T01:11:57;100186.94;;;19.81;62.40
72066;BME280;59939;52.516;13.420;2022-10-16T01:15:15;100185.63;;;20.08;60.89
72066;BME280;59939;52.516;13.420;2022-10-16T01:21:40;100191.66;;;20.17;61.40
72066;BME280;59939;52.516;13.420;2022-10-16T01:24:48;100186.81;;;20.07;61.27
72066;BME280;59939;52.516;13.420;2022-10-16T01:27:54;100200.56;;;19.90;62.00
72066;BME280;59939;52.516;13.420;2022-10-16T01:31:02;100207.34;;;19.92;61.80
72066;BME280;59939;52.516;13.420;2022-10-16T01:34:14;100212.63;;;20.04;61.74
72066;BME280;59939;52.516;13.420;2022-10-16T01:37:32;100198.09;;;19.81;62.56
72066;BME280;59939;52.516;13.420;2022-10-16T01:40:42;100211.03;;;20.03;61.54
72066;BME280;59939;52.516;13.420;2022-10-16T01:43:51;100213.63;;;19.85;62.06
72066;BME280;59939;52.516;13.420;2022-10-16T01:46:59;100232.03;;;19.60;63.11
72066;BME280;59939;52.516;13.420;2022-10-16T01:50:05;100210.97;;;19.96;62.17
72066;BME280;59939;52.516;13.420;2022-10-16T01:53:12;100208.56;;;19.95;62.07
72066;BME280;59939;52.516;13.420;2022-10-16T01:56:17;100216.53;;;19.96;61.55
72066;BME280;59939;52.516;13.420;2022-10-16T01:59:25;100216.22;;;19.68;62.94
72066;BME280;59939;52.516;13.420;2022-10-16T02:02:30;100216.94;;;19.98;61.67
72066;BME280;59939;52.516;13.420;2022-10-16T02:05:49;100225.72;;;20.00;61.81
72066;BME280;59939;52.516;13.420;2022-10-16T02:08:54;100221.38;;;19.66;63.25
72066;BME280;59939;52.516;13.420;2022-10-16T02:12:02;100235.69;;;20.01;61.81
72066;BME280;59939;52.516;13.420;2022-10-16T02:15:08;100233.56;;;19.54;63.49
72066;BME280;59939;52.516;13.420;2022-10-16T02:18:12;100248.91;;;19.74;62.80
72066;BME280;59939;52.516;13.420;2022-10-16T02:21:26;100258.56;;;19.84;62.23
72066;BME280;59939;52.516;13.420;2022-10-16T02:24:37;100257.38;;;19.85;62.33
72066;BME280;59939;52.516;13.420;2022-10-16T02:27:56;100252.50;;;20.12;61.14
72066;BME280;59939;52.516;13.420;2022-10-16T02:31:03;100248.06;;;20.07;61.15
72066;BME280;59939;52.516;13.420;2022-10-16T02:34:09;100252.00;;;20.03;61.10
72066;BME280;59939;52.516;13.420;2022-10-16T02:37:16;100242.94;;;20.13;61.14
72066;BME280;59939;52.516;13.420;2022-10-16T02:40:21;100249.47;;;20.28;60.39
72066;BME280;59939;52.516;13.420;2022-10-16T02:43:26;100261.09;;;19.96;61.09
72066;BME280;59939;52.516;13.420;2022-10-16T02:46:30;100260.13;;;19.81;61.97
72066;BME280;59939;52.516;13.420;2022-10-16T02:49:34;100240.81;;;19.62;62.70
72066;BME280;59939;52.516;13.420;2022-10-16T02:52:38;100253.22;;;20.05;61.44
72066;BME280;59939;52.516;13.420;2022-10-16T02:55:42;100260.34;;;19.66;62.50
72066;BME280;59939;52.516;13.420;2022-10-16T02:58:45;100261.84;;;19.93;61.34
72066;BME280;59939;52.516;13.420;2022-10-16T03:01:49;100263.38;;;20.28;60.34
72066;BME280;59939;52.516;13.420;2022-10-16T03:04:53;100256.72;;;19.99;61.06
72066;BME280;59939;52.516;13.420;2022-10-16T03:07:57;100251.63;;;20.04;61.32
72066;BME280;59939;52.516;13.420;2022-10-16T03:11:03;100265.13;;;20.02;61.46
72066;BME280;59939;52.516;13.420;2022-10-16T03:14:07;100272.91;;;19.86;61.88
72066;BME280;59939;52.516;13.420;2022-10-16T03:17:11;100270.63;;;20.36;59.97
72066;BME280;59939;52.516;13.420;2022-10-16T03:20:16;100275.75;;;19.93;61.53
72066;BME280;59939;52.516;13.420;2022-10-16T03:23:20;100273.09;;;20.04;61.21
72066;BME280;59939;52.516;13.420;2022-10-16T03:26:24;100285.50;;;20.10;61.07
72066;BME280;59939;52.516;13.420;2022-10-16T03:29:28;100273.97;;;20.11;60.96
72066;BME280;59939;52.516;13.420;2022-10-16T03:32:33;100279.69;;;20.66;59.07
72066;BME280;59939;52.516;13.420;2022-10-16T03:35:42;100286.19;;;20.00;60.99
72066;BME280;59939;52.516;13.420;2022-10-16T03:38:45;100286.28;;;20.10;60.91
72066;BME280;59939;52.516;13.420;2022-10-16T03:41:49;100307.84;;;19.50;62.78
72066;BME280;59939;52.516;13.420;2022-10-16T03:44:53;100303.03;;;19.77;62.41
72066;BME280;59939;52.516;13.420;2022-10-16T03:47:57;100305.47;;;19.82;62.37
72066;BME280;59939;52.516;13.420;2022-10-16T03:51:01;100311.63;;;19.65;62.77
72066;BME280;59939;52.516;13.420;2022-10-16T03:54:05;100325.38;;;19.24;64.60
72066;BME280;59939;52.516;13.420;2022-10-16T03:57:09;100315.72;;;19.74;62.37
72066;BME280;59939;52.516;13.420;2022-10-16T04:00:13;100327.66;;;19.75;62.57
72066;BME280;59939;52.516;13.420;2022-10-16T04:03:17;100338.03;;;19.78;62.09
72066;BME280;59939;52.516;13.420;2022-10-16T04:06:22;100328.84;;;20.07;60.74
72066;BME280;59939;52.516;13.420;2022-10-16T04:09:26;100331.84;;;19.32;63.59
72066;BME280;59939;52.516;13.420;2022-10-16T04:12:29;100336.84;;;19.49;63.38
72066;BME280;59939;52.516;13.420;2022-10-16T04:15:33;100341.63;;;19.48;63.40
72066;BME280;59939;52.516;13.420;2022-10-16T04:18:37;100348.06;;;19.56;62.83
72066;BME280;59939;52.516;13.420;2022-10-16T04:21:41;100359.44;;;19.74;62.52
72066;BME280;59939;52.516;13.420;2022-10-16T04:24:45;100349.41;;;19.66;62.51
72066;BME280;59939;52.516;13.420;2022-10-16T04:27:48;100335.91;;;19.38;63.66
72066;BME280;59939;52.516;13.420;2022-10-16T04:30:52;100340.84;;;19.21;64.12
72066;BME280;59939;52.516;13.420;2022-10-16T04:33:56;100332.59;;;19.29;64.03
72066;BME280;59939;52.516;13.420;2022-10-16T04:37:00;100327.38;;;19.53;63.06
72066;BME280;59939;52.516;13.420;2022-10-16T04:40:04;100328.78;;;19.14;64.11
72066;BME280;59939;52.516;13.420;2022-10-16T04:43:08;100332.31;;;19.37;63.28
72066;BME280;59939;52.516;13.420;2022-10-16T04:46:12;100322.81;;;20.02;60.70
72066;BME280;59939;52.516;13.420;2022-10-16T04:49:16;100312.09;;;20.04;60.40
72066;BME280;59939;52.516;13.420;2022-10-16T04:52:20;100317.22;;;20.79;58.01
72066;BME280;59939;52.516;13.420;2022-10-16T04:55:25;100322.41;;;20.03;60.40
72066;BME280;59939;52.516;13.420;2022-10-16T04:58:28;100318.13;;;19.76;61.17
72066;BME280;59939;52.516;13.420;2022-10-16T05:01:35;100325.63;;;20.05;60.43
72066;BME280;59939;52.516;13.420;2022-10-16T05:04:39;100329.59;;;19.71;61.52
72066;BME280;59939;52.516;13.420;2022-10-16T05:07:42;100346.31;;;19.44;62.50
72066;BME280;59939;52.516;13.420;2022-10-16T05:10:46;100350.28;;;18.90;64.87
72066;BME280;59939;52.516;13.420;2022-10-16T05:13:50;100360.91;;;18.62;66.35
72066;BME280;59939;52.516;13.420;2022-10-16T05:16:55;100370.91;;;18.89;64.98
72066;BME280;59939;52.516;13.420;2022-10-16T05:19:58;100365.34;;;18.89;65.33
72066;BME280;59939;52.516;13.420;2022-10-16T05:23:02;100361.97;;;19.26;63.91
72066;BME280;59939;52.516;13.420;2022-10-16T05:26:07;100367.19;;;19.05;64.64
72066;BME280;59939;52.516;13.420;2022-10-16T05:29:11;100357.75;;;18.21;68.00
72066;BME280;59939;52.516;13.420;2022-10-16T05:32:17;100365.16;;;19.28;63.12
72066;BME280;59939;52.516;13.420;2022-10-16T05:35:21;100356.94;;;18.86;65.16
72066;BME280;59939;52.516;13.420;2022-10-16T05:38:25;100364.81;;;17.96;69.45
72066;BME280;59939;52.516;13.420;2022-10-16T05:41:29;100368.31;;;18.12;68.72
72066;BME280;59939;52.516;13.420;2022-10-16T05:44:33;100387.00;;;18.57;66.54
72066;BME280;59939;52.516;13.420;2022-10-16T05:47:42;100382.22;;;19.00;64.22
72066;BME280;59939;52.516;13.420;2022-10-16T05:50:45;100386.25;;;19.29;63.50
72066;BME280;59939;52.516;13.420;2022-10-16T05:53:49;100395.00;;;18.40;66.43
72066;BME280;59939;52.516;13.420;2022-10-16T05:56:53;100378.75;;;18.61;65.99
72066;BME280;59939;52.516;13.420;2022-10-16T05:59:56;100379.38;;;18.32;67.14
72066;BME280;59939;52.516;13.420;2022-10-16T06:03:00;100382.72;;;18.41;66.82
72066;BME280;59939;52.516;13.420;2022-10-16T06:06:13;100378.88;;;18.91;64.54
72066;BME280;59939;52.516;13.420;2022-10-16T06:09:17;100382.22;;;18.77;65.36
72066;BME280;59939;52.516;13.420;2022-10-16T06:12:21;100393.16;;;18.89;64.46
72066;BME280;59939;52.516;13.420;2022-10-16T06:15:25;100399.25;;;18.34;67.02
72066;BME280;59939;52.516;13.420;2022-10-16T06:18:29;100396.59;;;19.06;64.13
72066;BME280;59939;52.516;13.420;2022-10-16T06:21:33;100399.25;;;18.99;64.50
72066;BME280;59939;52.516;13.420;2022-10-16T06:24:37;100404.53;;;19.30;62.88
72066;BME280;59939;52.516;13.420;2022-10-16T06:27:43;100394.47;;;17.92;68.37
72066;BME280;59939;52.516;13.420;2022-10-16T06:31:03;100408.06;;;17.97;68.39
72066;BME280;59939;52.516;13.420;2022-10-16T06:34:21;100416.31;;;18.74;65.67
72066;BME280;59939;52.516;13.420;2022-10-16T06:37:26;100421.44;;;19.18;63.88
72066;BME280;59939;52.516;13.420;2022-10-16T06:40:33;100432.16;;;19.42;62.56
72066;BME280;59939;52.516;13.420;2022-10-16T06:43:51;100437.63;;;18.89;64.80
72066;BME280;59939;52.516;13.420;2022-10-16T06:46:56;100435.25;;;19.37;62.65
72066;BME280;59939;52.516;13.420;2022-10-16T06:49:59;100449.13;;;19.11;63.89
72066;BME280;59939;52.516;13.420;2022-10-16T06:53:03;100445.31;;;19.45;62.82
72066;BME280;59939;52.516;13.420;2022-10-16T06:56:22;100444.00;;;19.13;63.85
72066;BME280;59939;52.516;13.420;2022-10-16T06:59:25;100444.03;;;19.39;63.09
72066;BME280;59939;52.516;13.420;2022-10-16T07:02:29;100445.66;;;19.17;64.18
72066;BME280;59939;52.516;13.420;2022-10-16T07:05:37;100452.38;;;18.94;64.96
72066;BME280;59939;52.516;13.420;2022-10-16T07:08:43;100450.66;;;19.31;63.89
72066;BME280;59939;52.516;13.420;2022-10-16T07:11:47;100465.25;;;20.34;59.65
72066;BME280;59939;52.516;13.420;2022-10-16T07:14:51;100463.31;;;20.71;58.35
72066;BME280;59939;52.516;13.420;2022-10-16T07:17:56;100469.06;;;20.89;57.80
72066;BME280;59939;52.516;13.420;2022-10-16T07:21:14;100473.97;;;20.02;60.91
72066;BME280;59939;52.516;13.420;2022-10-16T07:24:19;100470.19;;;20.84;57.99
72066;BME280;59939;52.516;13.420;2022-10-16T07:27:23;100470.34;;;20.58;58.62
72066;BME280;59939;52.516;13.420;2022-10-16T07:30:29;100476.22;;;20.19;60.59
72066;BME280;59939;52.516;13.420;2022-10-16T07:33:38;100475.34;;;20.82;58.08
72066;BME280;59939;52.516;13.420;2022-10-16T07:36:42;100458.41;;;20.28;60.06
72066;BME280;59939;52.516;13.420;2022-10-16T07:40:21;100459.50;;;20.49;60.30
72066;BME280;59939;52.516;13.420;2022-10-16T07:43:25;100481.66;;;20.39;60.51
72066;BME280;59939;52.516;13.420;2022-10-16T07:46:29;100479.13;;;20.00;61.67
72066;BME280;59939;52.516;13.420;2022-10-16T07:49:34;100486.25;;;20.28;60.53
72066;BME280;59939;52.516;13.420;2022-10-16T07:52:38;100485.00;;;20.22;60.69
72066;BME280;59939;52.516;13.420;2022-10-16T07:55:42;100473.50;;;20.97;58.47
72066;BME280;59939;52.516;13.420;2022-10-16T07:58:46;100482.91;;;20.15;61.41
72066;BME280;59939;52.516;13.420;2022-10-16T08:01:49;100470.78;;;20.00;62.24
72066;BME280;59939;52.516;13.420;2022-10-16T08:04:54;100475.06;;;20.54;60.32
72066;BME280;59939;52.516;13.420;2022-10-16T08:07:58;100496.47;;;20.46;60.14
72066;BME280;59939;52.516;13.420;2022-10-16T08:11:02;100505.09;;;20.38;60.68
72066;BME280;59939;52.516;13.420;2022-10-16T08:14:07;100524.69;;;20.75;59.11
72066;BME280;59939;52.516;13.420;2022-10-16T08:17:13;100515.13;;;21.57;56.43
72066;BME280;59939;52.516;13.420;2022-10-16T08:20:17;100508.38;;;21.17;57.46
72066;BME280;59939;52.516;13.420;2022-10-16T08:23:21;100507.81;;;21.38;56.82
72066;BME280;59939;52.516;13.420;2022-10-16T08:26:26;100509.53;;;20.39;60.69
72066;BME280;59939;52.516;13.420;2022-10-16T08:29:31;100501.97;;;21.13;58.03
72066;BME280;59939;52.516;13.420;2022-10-16T08:32:42;100509.81;;;21.01;58.55
72066;BME280;59939;52.516;13.420;2022-10-16T08:35:51;100518.44;;;20.89;58.96
72066;BME280;59939;52.516;13.420;2022-10-16T08:38:57;100527.03;;;20.69;59.87
72066;BME280;59939;52.516;13.420;2022-10-16T08:42:11;100511.59;;;21.64;56.75
72066;BME280;59939;52.516;13.420;2022-10-16T08:45:23;100512.56;;;21.86;56.00
72066;BME280;59939;52.516;13.420;2022-10-16T08:48:50;100517.59;;;21.66;55.98
72066;BME280;59939;52.516;13.420;2022-10-16T08:51:55;100516.06;;;21.72;55.56
72066;BME280;59939;52.516;13.420;2022-10-16T08:54:59;100511.41;;;21.39;56.79
72066;BME280;59939;52.516;13.420;2022-10-16T08:58:29;100510.94;;;21.33;56.96
72066;BME280;59939;52.516;13.420;2022-10-16T09:01:44;100525.94;;;20.47;59.57
72066;BME280;59939;52.516;13.420;2022-10-16T09:05:22;100533.91;;;21.20;57.28
72066;BME280;59939;52.516;13.420;2022-10-16T09:12:20;100539.94;;;22.24;53.78
72066;BME280;59939;52.516;13.420;2022-10-16T09:15:43;100558.22;;;21.60;55.50
72066;BME280;59939;52.516;13.420;2022-10-16T09:19:15;100552.47;;;21.86;55.11
72066;BME280;59939;52.516;13.420;2022-10-16T09:22:27;100550.34;;;22.31;53.46
72066;BME280;59939;52.516;13.420;2022-10-16T09:25:34;100547.25;;;21.85;55.38
72066;BME280;59939;52.516;13.420;2022-10-16T09:28:38;100548.78;;;22.33;53.31
72066;BME280;59939;52.516;13.420;2022-10-16T09:31:43;100557.53;;;23.47;50.13
72066;BME280;59939;52.516;13.420;2022-10-16T09:34:49;100540.34;;;23.31;50.77
72066;BME280;59939;52.516;13.420;2022-10-16T09:37:54;100548.34;;;22.28;53.15
72066;BME280;59939;52.516;13.420;2022-10-16T09:41:03;100553.16;;;22.31;53.04
72066;BME280;59939;52.516;13.420;2022-10-16T09:44:32;100561.50;;;24.38;47.52
72066;BME280;59939;52.516;13.420;2022-10-16T09:47:40;100566.72;;;24.12;47.60
72066;BME280;59939;52.516;13.420;2022-10-16T09:50:59;100565.50;;;23.20;50.16
72066;BME280;59939;52.516;13.420;2022-10-16T09:57:17;100575.47;;;23.00;50.93
72066;BME280;59939;52.516;13.420;2022-10-16T10:00:22;100579.56;;;23.81;48.39
72066;BME280;59939;52.516;13.420;2022-10-16T10:03:36;100571.44;;;22.94;50.58
72066;BME280;59939;52.516;13.420;2022-10-16T10:07:18;100567.25;;;25.01;45.11
72066;BME280;59939;52.516;13.420;2022-10-16T10:10:27;100571.13;;;23.49;48.53
72066;BME280;59939;52.516;13.420;2022-10-16T10:13:32;100597.69;;;22.68;51.18
72066;BME280;59939;52.516;13.420;2022-10-16T10:16:35;100607.72;;;22.07;52.68
72066;BME280;59939;52.516;13.420;2022-10-16T10:19:44;100591.78;;;22.87;51.12
72066;BME280;59939;52.516;13.420;2022-10-16T10:22:49;100589.41;;;22.86;50.84
72066;BME280;59939;52.516;13.420;2022-10-16T10:26:30;100600.78;;;23.64;48.86
72066;BME280;59939;52.516;13.420;2022-10-16T10:29:47;100593.44;;;22.99;49.96
72066;BME280;59939;52.516;13.420;2022-10-16T10:36:39;100609.78;;;22.21;51.40
72066;BME280;59939;52.516;13.420;2022-10-16T10:40:22;100620.09;;;22.13;51.50
72066;BME280;59939;52.516;13.420;2022-10-16T10:50:25;100610.00;;;23.93;46.04
72066;BME280;59939;52.516;13.420;2022-10-16T10:53:41;100616.91;;;22.76;48.46
72066;BME280;59939;52.516;13.420;2022-10-16T10:56:57;100615.13;;;23.52;46.59
72066;BME280;59939;52.516;13.420;2022-10-16T11:03:46;100618.41;;;24.03;45.00
72066;BME280;59939;52.516;13.420;2022-10-16T11:07:02;100629.03;;;25.71;41.03
72066;BME280;59939;52.516;13.420;2022-10-16T11:10:19;100613.69;;;25.82;40.46
72066;BME280;59939;52.516;13.420;2022-10-16T11:13:58;100617.41;;;24.85;42.62
72066;BME280;59939;52.516;13.420;2022-10-16T11:17:22;100628.78;;;23.60;45.73
72066;BME280;59939;52.516;13.420;2022-10-16T11:20:34;100617.56;;;24.21;44.59
72066;BME280;59939;52.516;13.420;2022-10-16T11:24:20;100620.34;;;23.35;46.20
72066;BME280;59939;52.516;13.420;2022-10-16T11:27:39;100623.59;;;23.91;44.33
72066;BME280;59939;52.516;13.420;2022-10-16T11:30:58;100614.75;;;23.39;44.47
72066;BME280;59939;52.516;13.420;2022-10-16T11:37:42;100617.56;;;24.42;41.97
72066;BME280;59939;52.516;13.420;2022-10-16T11:40:51;100623.88;;;24.71;41.66
72066;BME280;59939;52.516;13.420;2022-10-16T11:48:04;100609.78;;;24.89;40.73
72066;BME280;59939;52.516;13.420;2022-10-16T11:51:37;100609.16;;;24.46;40.64
72066;BME280;59939;52.516;13.420;2022-10-16T11:54:56;100619.19;;;24.18;41.64
72066;BME280;59939;52.516;13.420;2022-10-16T11:58:24;100622.38;;;24.45;40.31
72066;BME280;59939;52.516;13.420;2022-10-16T12:01:35;100629.53;;;23.47;42.31
72066;BME280;59939;52.516;13.420;2022-10-16T12:04:46;100631.94;;;23.52;41.99
72066;BME280;59939;52.516;13.420;2022-10-16T12:08:09;100632.81;;;24.27;40.51
72066;BME280;59939;52.516;13.420;2022-10-16T12:11:30;100654.72;;;23.32;42.30
72066;BME280;59939;52.516;13.420;2022-10-16T12:15:00;100650.84;;;24.33;39.93
72066;BME280;59939;52.516;13.420;2022-10-16T12:18:23;100657.91;;;24.80;38.81
72066;BME280;59939;52.516;13.420;2022-10-16T12:21:31;100655.22;;;26.09;36.23
72066;BME280;59939;52.516;13.420;2022-10-16T12:24:42;100657.16;;;25.60;36.86
72066;BME280;59939;52.516;13.420;2022-10-16T12:28:02;100655.66;;;26.04;36.24
72066;BME280;59939;52.516;13.420;2022-10-16T12:31:09;100662.75;;;25.71;35.82
72066;BME280;59939;52.516;13.420;2022-10-16T12:34:27;100668.34;;;24.76;37.12
72066;BME280;59939;52.516;13.420;2022-10-16T12:37:34;100653.53;;;25.66;35.68
72066;BME280;59939;52.516;13.420;2022-10-16T12:40:55;100658.78;;;26.57;33.75
72066;BME280;59939;52.516;13.420;2022-10-16T12:44:02;100670.09;;;25.47;36.27
72066;BME280;59939;52.516;13.420;2022-10-16T12:47:20;100670.94;;;25.36;36.29
72066;BME280;59939;52.516;13.420;2022-10-16T12:50:38;100656.66;;;27.06;33.63
72066;BME280;59939;52.516;13.420;2022-10-16T12:53:45;100675.72;;;25.47;36.12
72066;BME280;59939;52.516;13.420;2022-10-16T12:57:08;100678.44;;;25.64;35.85
72066;BME280;59939;52.516;13.420;2022-10-16T13:00:32;100672.41;;;25.70;35.35
72066;BME280;59939;52.516;13.420;2022-10-16T13:04:00;100681.47;;;25.18;36.79
72066;BME280;59939;52.516;13.420;2022-10-16T13:07:27;100671.72;;;26.51;34.31
72066;BME280;59939;52.516;13.420;2022-10-16T13:10:41;100674.59;;;26.44;33.24
72066;BME280;59939;52.516;13.420;2022-10-16T13:17:19;100691.78;;;26.53;32.98
72066;BME280;59939;52.516;13.420;2022-10-16T13:21:03;100688.59;;;26.03;34.08
72066;BME280;59939;52.516;13.420;2022-10-16T13:27:55;100698.63;;;25.42;35.73
72066;BME280;59939;52.516;13.420;2022-10-16T13:31:01;100713.25;;;24.80;36.84
72066;BME280;59939;52.516;13.420;2022-10-16T13:34:13;100711.59;;;24.93;35.79
72066;BME280;59939;52.516;13.420;2022-10-16T13:37:20;100703.75;;;26.64;33.61
72066;BME280;59939;52.516;13.420;2022-10-16T13:40:24;100717.72;;;24.59;36.74
72066;BME280;59939;52.516;13.420;2022-10-16T13:46:37;100728.47;;;24.79;36.46
72066;BME280;59939;52.516;13.420;2022-10-16T13:49:41;100714.53;;;24.54;37.21
72066;BME280;59939;52.516;13.420;2022-10-16T13:52:45;100720.28;;;25.45;35.82
72066;BME280;59939;52.516;13.420;2022-10-16T13:55:49;100706.66;;;26.06;34.78
72066;BME280;59939;52.516;13.420;2022-10-16T13:59:25;100723.72;;;24.68;36.78
72066;BME280;59939;52.516;13.420;2022-10-16T14:02:35;100728.47;;;24.89;36.18
72066;BME280;59939;52.516;13.420;2022-10-16T14:05:52;100714.78;;;25.96;34.73
72066;BME280;59939;52.516;13.420;2022-10-16T14:09:08;100712.72;;;25.31;35.58
72066;BME280;59939;52.516;13.420;2022-10-16T14:12:13;100726.44;;;24.90;36.60
72066;BME280;59939;52.516;13.420;2022-10-16T14:15:20;100720.72;;;26.02;34.54
72066;BME280;59939;52.516;13.420;2022-10-16T14:18:27;100723.19;;;27.27;32.56
72066;BME280;59939;52.516;13.420;2022-10-16T14:21:34;100741.16;;;26.61;33.68
72066;BME280;59939;52.516;13.420;2022-10-16T14:24:38;100743.75;;;25.86;34.85
72066;BME280;59939;52.516;13.420;2022-10-16T14:28:13;100733.34;;;25.83;35.21
72066;BME280;59939;52.516;13.420;2022-10-16T14:31:29;100744.75;;;26.65;33.30
72066;BME280;59939;52.516;13.420;2022-10-16T14:34:38;100736.44;;;27.30;32.63
72066;BME280;59939;52.516;13.420;2022-10-16T14:37:43;100734.97;;;25.81;35.21
72066;BME280;59939;52.516;13.420;2022-10-16T14:40:50;100742.25;;;25.71;34.97
72066;BME280;59939;52.516;13.420;2022-10-16T14:44:10;100743.06;;;25.61;35.20
72066;BME280;59939;52.516;13.420;2022-10-16T14:47:19;100742.31;;;25.50;35.75
72066;BME280;59939;52.516;13.420;2022-10-16T14:50:30;100739.09;;;25.55;35.55
72066;BME280;59939;52.516;13.420;2022-10-16T14:53:34;100747.69;;;25.05;36.62
72066;BME280;59939;52.516;13.420;2022-10-16T14:59:49;100754.56;;;24.68;37.71
72066;BME280;59939;52.516;13.420;2022-10-16T15:02:58;100750.59;;;24.41;37.88
72066;BME280;59939;52.516;13.420;2022-10-16T15:06:02;100754.19;;;24.63;37.57
72066;BME280;59939;52.516;13.420;2022-10-16T15:09:14;100750.94;;;25.91;35.12
72066;BME280;59939;52.516;13.420;2022-10-16T15:12:18;100761.66;;;25.30;36.13
72066;BME280;59939;52.516;13.420;2022-10-16T15:18:27;100758.19;;;24.65;37.20
72066;BME280;59939;52.516;13.420;2022-10-16T15:21:38;100759.41;;;24.64;37.43
72066;BME280;59939;52.516;13.420;2022-10-16T15:24:50;100772.94;;;23.98;38.06
72066;BME280;59939;52.516;13.420;2022-10-16T15:27:56;100776.59;;;23.12;39.45
72066;BME280;59939;52.516;13.420;2022-10-16T15:31:00;100781.53;;;23.36;39.44
72066;BME280;59939;52.516;13.420;2022-10-16T15:34:09;100786.31;;;23.32;39.05
72066;BME280;59939;52.516;13.420;2022-10-16T15:37:13;100790.91;;;23.80;37.43
72066;BME280;59939;52.516;13.420;2022-10-16T15:40:18;100804.19;;;24.00;37.39
72066;BME280;59939;52.516;13.420;2022-10-16T15:43:22;100798.31;;;23.43;38.71
72066;BME280;59939;52.516;13.420;2022-10-16T15:46:27;100805.84;;;24.26;36.78
72066;BME280;59939;52.516;13.420;2022-10-16T15:49:33;100807.09;;;24.47;36.35
72066;BME280;59939;52.516;13.420;2022-10-16T15:52:38;100818.66;;;23.23;38.40
72066;BME280;59939;52.516;13.420;2022-10-16T15:55:42;100829.66;;;23.60;37.79
72066;BME280;59939;52.516;13.420;2022-10-16T15:58:46;100824.91;;;23.78;37.54
72066;BME280;59939;52.516;13.420;2022-10-16T16:01:50;100829.53;;;23.38;38.12
72066;BME280;59939;52.516;13.420;2022-10-16T16:04:55;100830.97;;;23.87;37.21
72066;BME280;59939;52.516;13.420;2022-10-16T16:08:02;100843.25;;;23.61;37.80
72066;BME280;59939;52.516;13.420;2022-10-16T16:11:12;100842.75;;;23.45;37.97
72066;BME280;59939;52.516;13.420;2022-10-16T16:14:19;100841.19;;;23.51;38.00
72066;BME280;59939;52.516;13.420;2022-10-16T16:17:23;100840.84;;;23.60;37.88
72066;BME280;59939;52.516;13.420;2022-10-16T16:20:28;100855.38;;;22.66;39.79
72066;BME280;59939;52.516;13.420;2022-10-16T16:23:34;100865.59;;;22.92;39.24
72066;BME280;59939;52.516;13.420;2022-10-16T16:26:43;100869.94;;;22.83;39.42
72066;BME280;59939;52.516;13.420;2022-10-16T16:29:49;100867.91;;;22.80;39.32
72066;BME280;59939;52.516;13.420;2022-10-16T16:33:00;100877.50;;;22.41;40.06
72066;BME280;59939;52.516;13.420;2022-10-16T16:36:07;100883.44;;;22.77;39.19
72066;BME280;59939;52.516;13.420;2022-10-16T16:39:14;100883.53;;;22.06;40.26
72066;BME280;59939;52.516;13.420;2022-10-16T16:42:18;100885.97;;;22.11;40.51
72066;BME280;59939;52.516;13.420;2022-10-16T16:45:21;100888.31;;;22.43;39.67
72066;BME280;59939;52.516;13.420;2022-10-16T16:48:26;100902.66;;;22.04;40.10
72066;BME280;59939;52.516;13.420;2022-10-16T16:51:30;100901.16;;;22.14;40.09
72066;BME280;59939;52.516;13.420;2022-10-16T16:54:37;100905.13;;;22.09;40.32
72066;BME280;59939;52.516;13.420;2022-10-16T16:57:41;100918.06;;;22.25;40.01
72066;BME280;59939;52.516;13.420;2022-10-16T17:00:46;100930.38;;;22.57;39.48
72066;BME280;59939;52.516;13.420;2022-10-16T17:04:20;100926.41;;;22.21;39.84
72066;BME280;59939;52.516;13.420;2022-10-16T17:07:26;100935.47;;;22.82;38.83